Time;durP1;ratioP1;P1;durP2;ratioP2;P2;SDS_P1;SDS_P2;PMS_P1;PMS_P2;Temp;Humidity;BMP_temperature;BMP_pressure;BME280_temperature;BME280_humidity;BME280_pressure;Samples;Min_cycle;Max_cycle;Signal;HPM_P1;HPM_P2
2021/11/06 00:00:54;;;;;;;24.47;18.40;;;;;;;2.26;100.00;99229.50;5075235;28;20229;-76
2021/11/06 00:03:22;;;;;;;23.93;18.47;;;;;;;2.28;100.00;99232.91;5058324;28;20347;-74
2021/11/06 00:05:50;;;;;;;26.13;18.83;;;;;;;2.28;100.00;99238.16;5074356;28;20480;-76
2021/11/06 00:08:18;;;;;;;17.60;15.70;;;;;;;2.27;100.00;99233.81;5073464;28;20202;-74
2021/11/06 00:10:46;;;;;;;21.53;17.30;;;;;;;2.29;100.00;99238.06;5070244;28;20350;-77
2021/11/06 00:13:17;;;;;;;23.33;17.53;;;;;;;2.38;100.00;99238.47;5042652;28;20218;-74
2021/11/06 00:15:45;;;;;;;23.10;17.67;;;;;;;2.30;100.00;99237.13;5070509;28;20606;-75
2021/11/06 00:18:14;;;;;;;21.10;17.40;;;;;;;2.32;100.00;99239.69;5069863;28;20685;-73
2021/11/06 00:20:42;;;;;;;22.60;18.37;;;;;;;2.33;100.00;99233.50;5063582;28;20226;-76
2021/11/06 00:23:10;;;;;;;21.10;17.30;;;;;;;2.37;100.00;99234.19;5072629;28;20618;-75
2021/11/06 00:25:38;;;;;;;18.57;15.47;;;;;;;2.39;100.00;99241.03;5071883;28;20828;-77
2021/11/06 00:28:06;;;;;;;21.83;17.27;;;;;;;2.42;100.00;99246.09;5042778;28;20308;-76
2021/11/06 00:30:35;;;;;;;21.13;17.27;;;;;;;2.40;100.00;99232.25;5070775;28;20222;-76
2021/11/06 00:33:03;;;;;;;21.93;16.20;;;;;;;2.53;100.00;99232.44;5074614;28;20202;-75
2021/11/06 00:35:31;;;;;;;22.17;17.63;;;;;;;2.43;100.00;99236.47;5061041;28;20737;-74
2021/11/06 00:38:00;;;;;;;19.17;15.93;;;;;;;2.40;100.00;99227.03;5071258;28;20209;-76
2021/11/06 00:40:28;;;;;;;20.87;16.07;;;;;;;2.41;100.00;99227.84;5071181;28;20233;-73
2021/11/06 00:42:56;;;;;;;17.80;14.83;;;;;;;2.42;100.00;99235.63;5040426;28;20240;-77
2021/11/06 00:45:24;;;;;;;19.13;16.17;;;;;;;2.42;100.00;99237.41;5073522;28;20218;-73
2021/11/06 00:47:53;;;;;;;20.90;16.13;;;;;;;2.42;100.00;99247.84;5078540;28;20230;-77
2021/11/06 00:50:21;;;;;;;19.80;15.00;;;;;;;2.55;100.00;99246.31;5062922;28;20413;-75
2021/11/06 00:52:50;;;;;;;18.00;15.80;;;;;;;2.50;100.00;99240.47;5076018;28;20293;-77
2021/11/06 00:55:19;;;;;;;20.63;16.03;;;;;;;2.48;100.00;99247.56;5073117;28;20617;-74
2021/11/06 00:57:48;;;;;;;19.53;15.93;;;;;;;2.48;100.00;99246.69;5076865;28;20855;-76
2021/11/06 01:00:17;;;;;;;18.57;15.53;;;;;;;2.51;100.00;99236.94;5042123;28;20237;-74
2021/11/06 01:02:45;;;;;;;20.20;14.93;;;;;;;2.48;100.00;99241.47;5075131;28;20207;-76
2021/11/06 01:05:16;;;;;;;18.83;15.27;;;;;;;2.42;100.00;99243.50;5065706;28;20229;-74
2021/11/06 01:07:44;;;;;;;22.10;17.13;;;;;;;2.50;100.00;99243.09;5074967;28;20271;-76
2021/11/06 01:10:15;;;;;;;20.63;16.20;;;;;;;2.54;100.00;99239.38;5077856;28;20509;-74
2021/11/06 01:12:44;;;;;;;21.50;16.03;;;;;;;2.59;100.00;99245.22;5076639;28;20206;-77
2021/11/06 01:15:14;;;;;;;21.80;16.47;;;;;;;2.48;100.00;99250.19;5046098;28;20561;-74
2021/11/06 01:17:43;;;;;;;16.57;14.73;;;;;;;2.45;100.00;99242.47;5075430;28;20491;-76
2021/11/06 01:20:11;;;;;;;19.77;14.90;;;;;;;2.44;100.00;99248.63;5065304;28;20234;-75
2021/11/06 01:22:41;;;;;;;18.93;14.90;;;;;;;2.46;100.00;99250.25;5074958;28;20417;-77
2021/11/06 01:25:09;;;;;;;18.80;14.80;;;;;;;2.51;100.00;99242.16;5077405;28;20226;-75
2021/11/06 01:27:37;;;;;;;20.77;15.27;;;;;;;2.41;100.00;99246.16;5074300;28;20510;-76
2021/11/06 01:30:07;;;;;;;19.07;15.67;;;;;;;2.44;100.00;99249.47;5077548;28;20222;-76
2021/11/06 01:32:36;;;;;;;16.17;14.17;;;;;;;2.42;100.00;99245.25;5044458;28;20316;-76
2021/11/06 01:35:05;;;;;;;18.30;15.13;;;;;;;2.37;100.00;99252.50;5077987;28;20198;-77
2021/11/06 01:37:33;;;;;;;21.07;15.50;;;;;;;2.44;100.00;99246.88;5062834;28;20448;-77
2021/11/06 01:40:02;;;;;;;17.10;13.97;;;;;;;2.37;100.00;99247.25;5078373;28;20241;-77
2021/11/06 01:42:31;;;;;;;16.20;14.27;;;;;;;2.33;100.00;99243.13;5072889;28;20237;-76
2021/11/06 01:44:59;;;;;;;18.77;16.07;;;;;;;2.36;100.00;99241.19;5075833;28;20230;-77
2021/11/06 01:47:27;;;;;;;18.60;16.20;;;;;;;2.24;100.00;99242.69;5041429;28;20233;-73
2021/11/06 01:49:56;;;;;;;17.07;15.37;;;;;;;2.30;100.00;99244.16;5027842;28;20457;-76
2021/11/06 01:52:24;;;;;;;18.40;15.97;;;;;;;2.34;100.00;99243.06;5074738;28;20674;-77
2021/11/06 01:54:52;;;;;;;19.53;15.80;;;;;;;2.21;100.00;99232.38;5060077;28;20209;-73
2021/11/06 01:57:22;;;;;;;18.67;15.30;;;;;;;2.23;100.00;99241.00;5072579;28;20704;-77
2021/11/06 01:59:50;;;;;;;18.43;15.70;;;;;;;2.28;100.00;99240.75;5059121;28;20229;-73
2021/11/06 02:02:18;;;;;;;20.30;16.13;;;;;;;2.12;100.00;99235.47;5070322;28;20202;-74
2021/11/06 02:04:46;;;;;;;18.07;14.00;;;;;;;2.02;100.00;99242.97;5043725;28;20446;-77
2021/11/06 02:07:18;;;;;;;19.80;15.70;;;;;;;2.10;100.00;99247.78;5074797;28;20285;-74
2021/11/06 02:09:46;;;;;;;15.70;14.00;;;;;;;2.11;100.00;99239.03;5073768;28;20230;-76
2021/11/06 02:12:14;;;;;;;16.67;13.27;;;;;;;2.08;100.00;99242.63;5068148;28;20206;-73
2021/11/06 02:14:43;;;;;;;17.57;14.70;;;;;;;2.18;100.00;99235.16;5074496;28;20233;-77
2021/11/06 02:17:13;;;;;;;17.70;15.67;;;;;;;2.07;100.00;99232.25;5076635;28;20194;-74
2021/11/06 02:19:41;;;;;;;15.80;13.37;;;;;;;2.05;100.00;99237.56;5043014;28;20450;-77
2021/11/06 02:22:10;;;;;;;20.83;15.73;;;;;;;2.05;100.00;99240.19;5072324;28;20224;-77
2021/11/06 02:24:39;;;;;;;17.70;15.47;;;;;;;2.04;100.00;99238.50;5073893;28;20545;-77
2021/11/06 02:27:07;;;;;;;17.70;14.37;;;;;;;2.02;100.00;99238.56;5067314;28;20214;-77
2021/11/06 02:29:35;;;;;;;17.10;14.90;;;;;;;1.99;100.00;99243.94;5072769;28;20419;-77
2021/11/06 02:32:06;;;;;;;18.47;15.33;;;;;;;1.97;100.00;99245.78;5076630;28;20343;-77
2021/11/06 02:34:34;;;;;;;16.13;14.30;;;;;;;2.05;100.00;99244.53;5073199;28;20194;-76
2021/11/06 02:37:04;;;;;;;16.77;14.20;;;;;;;2.01;100.00;99252.56;5043264;28;20740;-77
2021/11/06 02:39:34;;;;;;;17.13;14.07;;;;;;;1.96;100.00;99245.88;5072001;28;20222;-75
2021/11/06 02:42:04;;;;;;;18.30;13.93;;;;;;;2.03;100.00;99245.47;5060714;28;20327;-77
2021/11/06 02:44:33;;;;;;;16.83;13.77;;;;;;;2.13;100.00;99245.84;5074324;28;20213;-74
2021/11/06 02:47:01;;;;;;;16.73;13.67;;;;;;;2.05;100.00;99242.78;5073628;28;20577;-76
2021/11/06 02:49:29;;;;;;;18.43;13.50;;;;;;;2.09;100.00;99246.94;5076480;28;20218;-76
2021/11/06 02:51:58;;;;;;;18.20;14.40;;;;;;;2.09;100.00;99240.88;5045038;28;20521;-76
2021/11/06 02:54:26;;;;;;;15.30;13.63;;;;;;;2.06;100.00;99239.25;5071675;28;20231;-76
2021/11/06 02:56:56;;;;;;;16.20;13.90;;;;;;;2.03;100.00;99240.25;5062371;28;20331;-75
2021/11/06 02:59:24;;;;;;;16.90;14.57;;;;;;;1.98;100.00;99244.88;5076819;28;20603;-78
2021/11/06 03:01:52;;;;;;;17.87;14.83;;;;;;;1.98;100.00;99257.13;5062239;28;20206;-78
2021/11/06 03:04:20;;;;;;;19.90;14.60;;;;;;;2.02;100.00;99253.41;5076496;28;20229;-77
2021/11/06 03:06:52;;;;;;;16.73;14.53;;;;;;;1.92;100.00;99260.88;5044918;28;20218;-73
2021/11/06 03:09:20;;;;;;;18.17;14.67;;;;;;;1.94;100.00;99263.44;5072005;28;20234;-78
2021/11/06 03:11:48;;;;;;;19.23;14.27;;;;;;;2.07;100.00;99255.78;5073926;28;20208;-76
2021/11/06 03:14:18;;;;;;;17.43;15.53;;;;;;;2.11;100.00;99252.09;5069318;28;20221;-78
2021/11/06 03:16:46;;;;;;;14.77;13.27;;;;;;;2.00;100.00;99257.88;5074571;28;20202;-76
2021/11/06 03:19:14;;;;;;;18.10;13.70;;;;;;;1.95;100.00;99259.88;5077387;28;20337;-78
2021/11/06 03:21:42;;;;;;;17.40;14.33;;;;;;;2.02;100.00;99262.09;5075639;28;20202;-76
2021/11/06 03:24:10;;;;;;;18.50;14.30;;;;;;;1.99;100.00;99258.81;5046771;28;20226;-79
2021/11/06 03:26:38;;;;;;;15.40;13.77;;;;;;;2.08;100.00;99262.69;5075406;28;20243;-76
2021/11/06 03:29:06;;;;;;;17.43;13.17;;;;;;;2.02;100.00;99261.25;5067346;28;20467;-78
2021/11/06 03:31:35;;;;;;;16.27;13.07;;;;;;;2.05;100.00;99263.72;5076639;28;20669;-76
2021/11/06 03:34:03;;;;;;;16.63;14.27;;;;;;;1.93;100.00;99265.19;5075727;28;20343;-78
2021/11/06 03:36:31;;;;;;;16.77;13.90;;;;;;;1.98;100.00;99267.56;5076662;28;20206;-76
2021/11/06 03:38:59;;;;;;;19.20;13.73;;;;;;;1.92;100.00;99273.94;5044131;28;20521;-78
2021/11/06 03:41:27;;;;;;;17.70;13.27;;;;;;;1.92;100.00;99279.19;5073944;28;20225;-78
2021/11/06 03:43:57;;;;;;;15.10;13.33;;;;;;;1.99;100.00;99274.50;5058741;28;20207;-78
2021/11/06 03:46:25;;;;;;;19.37;13.43;;;;;;;1.98;100.00;99273.63;5076707;28;20852;-79
2021/11/06 03:48:55;;;;;;;14.93;12.37;;;;;;;2.05;100.00;99279.41;5075085;28;20419;-78
2021/11/06 03:51:23;;;;;;;15.93;12.97;;;;;;;2.10;100.00;99280.00;5080506;28;20206;-78
2021/11/06 03:53:51;;;;;;;16.30;13.10;;;;;;;2.02;100.00;99287.41;5045204;28;20455;-74
2021/11/06 03:56:19;;;;;;;18.00;13.67;;;;;;;2.12;100.00;99269.47;5037425;28;20599;-77
2021/11/06 03:58:48;;;;;;;14.83;12.80;;;;;;;2.07;100.00;99287.16;5061500;28;20217;-77
2021/11/06 04:01:16;;;;;;;16.73;14.20;;;;;;;2.13;100.00;99281.63;5072333;28;20362;-77
2021/11/06 04:03:44;;;;;;;16.80;13.83;;;;;;;1.97;100.00;99284.19;5067261;28;20216;-78
2021/11/06 04:06:14;;;;;;;16.47;13.60;;;;;;;2.06;100.00;99290.69;5074216;28;20314;-75
2021/11/06 04:08:43;;;;;;;15.03;13.07;;;;;;;2.01;100.00;99283.09;5074067;28;20210;-77
2021/11/06 04:11:12;;;;;;;17.50;13.20;;;;;;;1.96;100.00;99283.31;5044795;28;20218;-74
2021/11/06 04:13:40;;;;;;;17.30;12.80;;;;;;;1.89;100.00;99279.34;5076502;28;20385;-77
2021/11/06 04:16:08;;;;;;;15.40;12.90;;;;;;;1.97;100.00;99285.00;5063606;28;20206;-75
2021/11/06 04:18:36;;;;;;;18.33;14.27;;;;;;;2.00;100.00;99289.25;5077645;28;20201;-78
2021/11/06 04:21:04;;;;;;;15.70;13.50;;;;;;;1.97;100.00;99289.41;5066934;28;20232;-75
2021/11/06 04:23:33;;;;;;;15.43;12.97;;;;;;;1.84;100.00;99283.94;5076354;28;20198;-75
2021/11/06 04:26:01;;;;;;;15.53;13.93;;;;;;;1.83;100.00;99292.72;5077368;28;20236;-75
2021/11/06 04:28:30;;;;;;;19.63;12.97;;;;;;;1.88;100.00;99290.72;5047777;28;21017;-78
2021/11/06 04:30:58;;;;;;;16.23;13.70;;;;;;;1.80;100.00;99285.03;5066688;28;20300;-75
2021/11/06 04:33:26;;;;;;;14.83;13.20;;;;;;;1.75;100.00;99281.81;5075622;28;20744;-78
2021/11/06 04:35:54;;;;;;;14.93;13.37;;;;;;;1.65;100.00;99278.78;5070810;28;20215;-75
2021/11/06 04:38:22;;;;;;;15.87;13.27;;;;;;;1.66;100.00;99283.94;5077071;28;20390;-77
2021/11/06 04:40:52;;;;;;;16.40;12.93;;;;;;;1.65;100.00;99282.22;5081837;28;20226;-77
2021/11/06 04:43:20;;;;;;;15.17;12.37;;;;;;;1.56;100.00;99280.94;5050363;28;20862;-77
2021/11/06 04:45:48;;;;;;;17.80;12.23;;;;;;;1.46;100.00;99274.44;5066001;28;20230;-77
2021/11/06 04:48:16;;;;;;;14.43;12.77;;;;;;;1.52;100.00;99278.53;5075297;28;20717;-77
2021/11/06 04:50:44;;;;;;;16.13;11.80;;;;;;;1.39;100.00;99284.38;5067942;28;20230;-76
2021/11/06 04:53:12;;;;;;;14.03;12.57;;;;;;;1.35;100.00;99282.81;5074893;28;20206;-74
2021/11/06 04:55:40;;;;;;;13.17;11.20;;;;;;;1.22;100.00;99294.75;5078542;28;20426;-77
2021/11/06 04:58:09;;;;;;;14.17;12.17;;;;;;;1.24;100.00;99285.09;5075291;28;20654;-74
2021/11/06 05:00:37;;;;;;;14.23;11.20;;;;;;;1.20;100.00;99292.25;5049050;28;20748;-75
2021/11/06 05:03:05;;;;;;;14.30;11.97;;;;;;;1.25;100.00;99300.69;5049733;28;20452;-77
2021/11/06 05:05:33;;;;;;;13.43;12.03;;;;;;;1.11;100.00;99293.50;5078081;28;20221;-76
2021/11/06 05:08:01;;;;;;;12.40;11.10;;;;;;;1.16;100.00;99295.91;5059772;28;20214;-75
2021/11/06 05:10:29;;;;;;;14.70;12.43;;;;;;;1.24;100.00;99296.38;5068213;28;20956;-78
2021/11/06 05:12:57;;;;;;;12.23;10.90;;;;;;;1.24;100.00;99298.13;5075284;28;20206;-75
2021/11/06 05:15:27;;;;;;;15.37;12.37;;;;;;;1.21;100.00;99293.06;5051056;28;20302;-78
2021/11/06 05:17:55;;;;;;;13.23;11.17;;;;;;;1.18;100.00;99301.03;5061279;28;20675;-76
2021/11/06 05:20:23;;;;;;;14.83;11.80;;;;;;;1.14;100.00;99301.19;5077171;28;20229;-77
2021/11/06 05:22:51;;;;;;;12.93;11.20;;;;;;;1.14;100.00;99302.97;5059295;28;20224;-71
2021/11/06 05:25:19;;;;;;;13.23;11.83;;;;;;;1.22;100.00;99300.84;5074816;28;20214;-73
2021/11/06 05:27:47;;;;;;;11.23;10.03;;;;;;;1.14;100.00;99298.59;5057306;28;20233;-72
2021/11/06 05:30:15;;;;;;;14.73;11.53;;;;;;;1.13;100.00;99301.25;5078460;28;20229;-75
2021/11/06 05:32:45;;;;;;;11.63;10.50;;;;;;;1.26;100.00;99304.13;5037614;28;20474;-75
2021/11/06 05:35:13;;;;;;;13.30;11.20;;;;;;;1.13;100.00;99302.13;5079762;28;20680;-72
2021/11/06 05:37:42;;;;;;;14.33;11.93;;;;;;;1.22;100.00;99299.97;5075674;28;20206;-73
2021/11/06 05:40:12;;;;;;;14.27;11.67;;;;;;;1.15;100.00;99302.88;5075747;28;20341;-77
2021/11/06 05:42:40;;;;;;;14.83;11.80;;;;;;;1.02;100.00;99296.56;5079178;28;20593;-74
2021/11/06 05:45:09;;;;;;;13.20;10.43;;;;;;;1.09;100.00;99308.41;5074961;28;20202;-77
2021/11/06 05:47:37;;;;;;;12.43;10.93;;;;;;;1.07;100.00;99297.19;5050292;28;20225;-74
2021/11/06 05:50:10;;;;;;;14.00;11.40;;;;;;;1.03;100.00;99305.22;5066472;28;20594;-76
2021/11/06 05:52:38;;;;;;;15.47;11.73;;;;;;;1.08;100.00;99304.09;5079238;28;20206;-73
2021/11/06 05:55:08;;;;;;;13.03;11.37;;;;;;;1.02;100.00;99320.06;5070681;28;20643;-76
2021/11/06 05:57:37;;;;;;;15.73;12.03;;;;;;;1.13;100.00;99314.31;5083533;28;20209;-73
2021/11/06 06:00:08;;;;;;;16.67;12.87;;;;;;;1.02;100.00;99322.66;5074408;28;20367;-73
2021/11/06 06:02:36;;;;;;;19.03;12.17;;;;;;;1.15;100.00;99317.72;5038143;28;20797;-73
2021/11/06 06:05:04;;;;;;;15.90;12.63;;;;;;;1.15;100.00;99313.34;5028824;28;20657;-73
2021/11/06 06:07:34;;;;;;;17.57;12.53;;;;;;;1.30;100.00;99316.13;5078329;28;20614;-73
2021/11/06 06:10:02;;;;;;;16.27;12.33;;;;;;;1.17;100.00;99318.50;5066666;28;20257;-74
2021/11/06 06:12:30;;;;;;;14.77;12.50;;;;;;;1.11;100.00;99317.00;5077567;28;20396;-76
2021/11/06 06:14:58;;;;;;;15.50;12.50;;;;;;;1.13;100.00;99320.38;5066839;28;20331;-72
2021/11/06 06:17:26;;;;;;;17.80;13.53;;;;;;;1.25;100.00;99323.34;5077873;28;20863;-75
2021/11/06 06:19:57;;;;;;;16.80;14.07;;;;;;;1.32;100.00;99327.34;5037097;28;20563;-76
2021/11/06 06:22:25;;;;;;;16.50;13.57;;;;;;;1.21;100.00;99322.66;5080284;28;20546;-75
2021/11/06 06:24:55;;;;;;;17.10;13.17;;;;;;;1.11;100.00;99324.84;5070097;28;20236;-76
2021/11/06 06:27:23;;;;;;;16.17;13.07;;;;;;;1.15;100.00;99323.78;5081725;28;20253;-75
2021/11/06 06:29:51;;;;;;;19.50;14.57;;;;;;;1.15;100.00;99326.38;5069162;28;20917;-76
2021/11/06 06:32:18;;;;;;;18.67;14.13;;;;;;;1.17;100.00;99325.47;5078371;28;20221;-76
2021/11/06 06:34:46;;;;;;;17.30;14.57;;;;;;;1.14;100.00;99329.91;5031763;28;20211;-76
2021/11/06 06:37:14;;;;;;;16.17;13.83;;;;;;;1.13;100.00;99348.25;5053578;28;20447;-77
2021/11/06 06:39:42;;;;;;;18.53;14.43;;;;;;;1.15;100.00;99342.06;5073006;28;20902;-75
2021/11/06 06:42:12;;;;;;;18.47;15.03;;;;;;;1.19;100.00;99349.75;5057642;28;20221;-74
2021/11/06 06:44:42;;;;;;;18.27;15.23;;;;;;;1.11;100.00;99348.34;5049166;28;20297;-74
2021/11/06 06:47:16;;;;;;;17.93;14.17;;;;;;;1.21;100.00;99353.13;5075611;28;20250;-76
2021/11/06 06:49:47;;;;;;;21.10;16.43;;;;;;;1.23;100.00;99359.13;5023680;28;20722;-73
2021/11/06 06:52:17;;;;;;;19.47;16.37;;;;;;;1.22;100.00;99353.06;5054495;28;20202;-76
2021/11/06 06:54:47;;;;;;;22.93;16.40;;;;;;;1.38;100.00;99357.56;5066175;28;20377;-76
2021/11/06 06:57:22;;;;;;;20.63;16.03;;;;;;;1.30;100.00;99365.75;5060210;28;20206;-75
2021/11/06 06:59:54;;;;;;;19.57;15.67;;;;;;;1.26;100.00;99374.66;5072570;28;20925;-75
2021/11/06 07:02:22;;;;;;;18.70;14.23;;;;;;;1.23;100.00;99369.56;5072934;28;20221;-74
2021/11/06 07:04:50;;;;;;;19.43;15.03;;;;;;;1.28;100.00;99381.50;5075219;28;20658;-75
2021/11/06 07:07:18;;;;;;;18.33;13.03;;;;;;;1.25;100.00;99379.03;5035560;28;20243;-74
2021/11/06 07:09:47;;;;;;;19.80;15.67;;;;;;;1.43;100.00;99373.88;5079588;28;20656;-76
2021/11/06 07:12:15;;;;;;;18.77;14.37;;;;;;;1.52;100.00;99372.59;5061345;28;20463;-74
2021/11/06 07:14:45;;;;;;;21.37;14.10;;;;;;;1.47;100.00;99371.97;5068053;28;20894;-76
2021/11/06 07:17:13;;;;;;;19.90;14.30;;;;;;;1.57;100.00;99378.44;5072323;28;20198;-74
2021/11/06 07:19:41;;;;;;;16.90;14.13;;;;;;;1.52;100.00;99375.22;5077498;28;20954;-77
2021/11/06 07:22:09;;;;;;;24.27;13.70;;;;;;;1.54;100.00;99379.47;5051503;28;20222;-74
2021/11/06 07:24:37;;;;;;;14.07;12.63;;;;;;;1.57;100.00;99381.06;5071972;28;20209;-76
2021/11/06 07:27:06;;;;;;;15.67;12.17;;;;;;;1.57;100.00;99388.91;5073579;28;20465;-74
2021/11/06 07:29:35;;;;;;;19.87;12.77;;;;;;;1.50;100.00;99387.50;5071166;28;20232;-77
2021/11/06 07:32:05;;;;;;;17.13;11.17;;;;;;;1.49;100.00;99385.81;5075234;28;20213;-76
2021/11/06 07:34:33;;;;;;;15.23;10.57;;;;;;;1.41;100.00;99387.03;5068128;28;20324;-76
2021/11/06 07:37:01;;;;;;;13.80;10.77;;;;;;;1.43;100.00;99387.78;5050413;28;20484;-77
2021/11/06 07:39:29;;;;;;;12.47;10.87;;;;;;;1.44;100.00;99386.00;5070464;28;20704;-77
2021/11/06 07:41:58;;;;;;;15.20;11.90;;;;;;;1.52;100.00;99390.88;5076920;28;20206;-77
2021/11/06 07:44:26;;;;;;;19.03;11.33;;;;;;;1.41;100.00;99399.22;5078349;28;20201;-76
2021/11/06 07:46:55;;;;;;;18.27;13.47;;;;;;;1.34;100.00;99403.03;5075643;28;20257;-77
2021/11/06 07:49:25;;;;;;;15.47;12.87;;;;;;;1.38;100.00;99399.38;5077915;28;20245;-75
2021/11/06 07:51:57;;;;;;;15.93;13.33;;;;;;;1.47;100.00;99398.09;5076064;28;20202;-78
2021/11/06 07:54:25;;;;;;;15.97;11.60;;;;;;;1.53;100.00;99395.19;5049791;28;20214;-75
2021/11/06 07:56:54;;;;;;;15.67;10.57;;;;;;;1.54;100.00;99410.81;5079471;28;20586;-78
2021/11/06 07:59:22;;;;;;;17.93;10.73;;;;;;;1.44;100.00;99401.69;5070508;28;20261;-75
2021/11/06 08:01:52;;;;;;;17.07;11.30;;;;;;;1.54;100.00;99408.19;5076918;28;20217;-78
2021/11/06 08:04:20;;;;;;;14.67;11.20;;;;;;;1.52;100.00;99391.75;5069591;28;20390;-75
2021/11/06 08:06:49;;;;;;;16.70;10.97;;;;;;;1.36;100.00;99401.19;5076684;28;20210;-77
2021/11/06 08:09:17;;;;;;;17.20;10.20;;;;;;;1.49;100.00;99396.25;5055066;28;20225;-78
2021/11/06 08:11:48;;;;;;;12.73;9.57;;;;;;;1.37;100.00;99395.06;5041698;28;20252;-77
2021/11/06 08:14:16;;;;;;;14.03;9.90;;;;;;;1.63;100.00;99391.22;5076630;28;20293;-78
2021/11/06 08:16:44;;;;;;;11.50;10.30;;;;;;;1.52;100.00;99399.59;5074214;28;20458;-75
2021/11/06 08:19:12;;;;;;;11.17;9.90;;;;;;;1.59;100.00;99405.34;5077801;28;20678;-75
2021/11/06 08:21:40;;;;;;;13.50;11.13;;;;;;;1.65;100.00;99402.44;5067199;28;21187;-72
2021/11/06 08:24:10;;;;;;;11.20;10.10;;;;;;;1.63;100.00;99401.69;5081857;28;20627;-76
2021/11/06 08:26:38;;;;;;;13.73;10.77;;;;;;;1.85;100.00;99413.75;5043616;28;20240;-73
2021/11/06 08:29:06;;;;;;;12.20;10.90;;;;;;;1.59;100.00;99403.59;5081596;28;20769;-77
2021/11/06 08:31:34;;;;;;;15.10;10.43;;;;;;;1.48;100.00;99407.63;5074097;28;20217;-75
2021/11/06 08:34:02;;;;;;;12.47;11.13;;;;;;;1.53;100.00;99416.09;5066502;28;20206;-77
2021/11/06 08:36:30;;;;;;;15.17;10.77;;;;;;;1.72;100.00;99409.09;5077872;28;20212;-74
2021/11/06 08:38:58;;;;;;;11.53;10.07;;;;;;;1.82;100.00;99411.28;5063601;28;20210;-78
2021/11/06 08:41:29;;;;;;;17.27;11.43;;;;;;;1.70;100.00;99418.75;5066485;28;20210;-74
2021/11/06 08:44:05;;;;;;;17.50;11.47;;;;;;;1.79;100.00;99414.03;5067636;28;20206;-78
2021/11/06 08:46:33;;;;;;;15.87;9.47;;;;;;;1.97;100.00;99415.75;5081995;28;20569;-76
2021/11/06 08:49:01;;;;;;;10.97;9.33;;;;;;;1.92;100.00;99414.28;5083237;28;20226;-77
2021/11/06 08:51:29;;;;;;;14.13;10.00;;;;;;;2.02;100.00;99411.13;5082141;28;20428;-76
2021/11/06 08:53:58;;;;;;;11.23;9.57;;;;;;;1.93;100.00;99408.97;5075392;28;20209;-79
2021/11/06 08:56:28;;;;;;;12.07;10.00;;;;;;;1.97;100.00;99418.38;5086041;28;20205;-76
2021/11/06 08:58:56;;;;;;;10.43;8.93;;;;;;;2.13;100.00;99430.72;5051429;28;20206;-77
2021/11/06 09:01:25;;;;;;;14.27;10.23;;;;;;;2.08;100.00;99414.38;5077391;28;20205;-76
2021/11/06 09:03:55;;;;;;;14.50;9.93;;;;;;;2.19;100.00;99419.09;5086716;28;20858;-79
2021/11/06 09:06:24;;;;;;;12.20;9.57;;;;;;;2.26;100.00;99417.84;5083563;28;20205;-76
2021/11/06 09:08:52;;;;;;;11.27;9.37;;;;;;;2.47;100.00;99415.97;5076765;28;20758;-79
2021/11/06 09:11:20;;;;;;;12.03;10.20;;;;;;;2.46;100.00;99415.09;5059880;28;20354;-79
2021/11/06 09:13:54;;;;;;;12.47;9.53;;;;;;;2.58;100.00;99420.63;5051862;28;20233;-78
2021/11/06 09:16:22;;;;;;;13.40;10.40;;;;;;;2.39;100.00;99411.09;5068740;28;20722;-78
2021/11/06 09:18:51;;;;;;;10.10;8.87;;;;;;;2.55;100.00;99418.16;5079576;28;20198;-79
2021/11/06 09:21:21;;;;;;;11.40;10.20;;;;;;;2.33;100.00;99426.25;5073707;28;20234;-79
2021/11/06 09:23:50;;;;;;;10.37;9.37;;;;;;;2.30;100.00;99427.28;5079285;28;20586;-79
2021/11/06 09:26:18;;;;;;;11.03;9.57;;;;;;;2.52;100.00;99426.19;5069388;28;20199;-80
2021/11/06 09:28:48;;;;;;;11.47;10.03;;;;;;;2.57;100.00;99421.56;5055943;28;20652;-79
2021/11/06 09:31:18;;;;;;;15.37;11.83;;;;;;;2.67;100.00;99437.66;5068699;28;20213;-76
2021/11/06 09:33:48;;;;;;;12.77;10.40;;;;;;;2.68;100.00;99429.72;5079315;28;20678;-77
2021/11/06 09:36:16;;;;;;;12.17;10.97;;;;;;;2.74;100.00;99433.78;5071919;28;20874;-77
2021/11/06 09:38:45;;;;;;;13.30;9.23;;;;;;;2.64;100.00;99443.03;5067223;28;21040;-75
2021/11/06 09:41:16;;;;;;;12.07;10.80;;;;;;;2.71;100.00;99434.81;5069788;28;21672;-77
2021/11/06 09:43:45;;;;;;;18.50;11.47;;;;;;;2.62;100.00;99434.41;5077117;28;20484;-77
2021/11/06 09:46:13;;;;;;;12.90;11.57;;;;;;;2.78;100.00;99434.47;5061300;28;20772;-77
2021/11/06 09:48:44;;;;;;;16.13;10.67;;;;;;;2.87;100.00;99442.72;5076625;28;20221;-77
2021/11/06 09:51:13;;;;;;;12.03;10.77;;;;;;;3.00;100.00;99444.69;5075663;28;20250;-75
2021/11/06 09:53:42;;;;;;;12.87;10.40;;;;;;;3.16;100.00;99436.88;5087933;28;20209;-79
2021/11/06 09:56:12;;;;;;;18.33;11.13;;;;;;;3.21;100.00;99429.63;5061272;28;20762;-77
2021/11/06 09:58:41;;;;;;;11.90;10.67;;;;;;;3.08;100.00;99436.44;5070218;28;20207;-77
2021/11/06 10:01:10;;;;;;;14.00;11.70;;;;;;;3.40;100.00;99433.84;5052301;28;20229;-77
2021/11/06 10:03:39;;;;;;;12.90;10.37;;;;;;;3.37;100.00;99431.41;5077068;28;20902;-77
2021/11/06 10:06:17;;;;;;;13.27;11.33;;;;;;;3.31;100.00;99441.28;5067258;28;20741;-77
2021/11/06 10:08:47;;;;;;;12.40;10.47;;;;;;;3.61;100.00;99437.13;5072788;28;20527;-75
2021/11/06 10:11:17;;;;;;;11.80;10.30;;;;;;;3.33;100.00;99428.94;5060952;28;20233;-78
2021/11/06 10:13:56;;;;;;;13.97;10.83;;;;;;;3.50;100.00;99426.34;5070185;28;20217;-76
2021/11/06 10:16:31;;;;;;;13.83;12.03;;;;;;;3.30;100.00;99425.66;5045529;28;20301;-77
2021/11/06 10:19:07;;;;;;;12.80;10.57;;;;;;;3.39;100.00;99426.91;5076905;28;20370;-75
2021/11/06 10:21:37;;;;;;;15.37;11.40;;;;;;;3.31;100.00;99432.59;5077622;28;20210;-77
2021/11/06 10:24:06;;;;;;;14.37;11.43;;;;;;;3.72;100.00;99413.75;5068731;28;20194;-77
2021/11/06 10:26:35;;;;;;;13.17;10.93;;;;;;;4.14;100.00;99418.44;5072648;28;20552;-75
2021/11/06 10:29:07;;;;;;;15.47;12.20;;;;;;;4.07;100.00;99414.50;5067771;28;20648;-77
2021/11/06 10:32:05;;;;;;;14.23;11.80;;;;;;;4.40;100.00;99411.69;5054651;28;20202;-74
2021/11/06 10:34:35;;;;;;;15.97;12.53;;;;;;;4.44;100.00;99407.94;5064627;28;20214;-74
2021/11/06 10:37:06;;;;;;;12.93;11.60;;;;;;;4.22;100.00;99403.09;5074104;28;20202;-76
2021/11/06 10:39:34;;;;;;;14.47;12.00;;;;;;;4.27;100.00;99406.28;5069313;28;20219;-74
2021/11/06 10:42:10;;;;;;;14.50;12.17;;;;;;;4.20;100.00;99403.19;5075959;28;20210;-73
2021/11/06 10:44:40;;;;;;;12.23;10.47;;;;;;;4.16;100.00;99396.41;5064029;28;20440;-75
2021/11/06 10:47:09;;;;;;;12.60;11.30;;;;;;;4.27;100.00;99393.19;5079365;28;20202;-76
2021/11/06 10:49:39;;;;;;;12.97;11.00;;;;;;;4.31;100.00;99396.47;5058428;28;20683;-73
2021/11/06 10:52:10;;;;;;;13.70;11.70;;;;;;;4.20;100.00;99387.47;5071523;28;20517;-74
2021/11/06 10:55:00;;;;;;;13.77;12.30;;;;;;;4.37;100.00;99383.00;5067989;28;20681;-73
2021/11/06 10:57:28;;;;;;;14.37;12.27;;;;;;;4.17;100.00;99381.53;5068896;28;20559;-73
2021/11/06 11:00:08;;;;;;;14.00;12.00;;;;;;;4.17;100.00;99374.53;5063838;28;20544;-75
2021/11/06 11:02:36;;;;;;;13.97;12.00;;;;;;;4.29;100.00;99372.09;5070066;28;20601;-75
2021/11/06 11:05:05;;;;;;;15.03;12.87;;;;;;;3.95;100.00;99369.63;5040826;28;20203;-78
2021/11/06 11:07:35;;;;;;;15.37;12.23;;;;;;;4.20;100.00;99369.09;5068747;28;20210;-77
2021/11/06 11:10:24;;;;;;;16.47;12.93;;;;;;;4.30;100.00;99360.66;5069289;28;20236;-78
2021/11/06 11:13:07;;;;;;;16.37;14.63;;;;;;;4.61;100.00;99349.19;5064019;28;20874;-78
2021/11/06 11:15:36;;;;;;;17.90;13.40;;;;;;;4.73;100.00;99338.84;5067858;28;20585;-75
2021/11/06 11:18:04;;;;;;;13.97;12.57;;;;;;;4.73;100.00;99334.47;5078720;28;20209;-79
2021/11/06 11:20:35;;;;;;;16.73;12.87;;;;;;;4.67;100.00;99332.22;5042420;28;20238;-76
2021/11/06 11:23:13;;;;;;;15.13;11.40;;;;;;;4.81;100.00;99331.38;5076257;28;20209;-78
2021/11/06 11:25:43;;;;;;;14.50;12.43;;;;;;;4.83;100.00;99329.50;5057023;28;20217;-75